sensor_id;sensor_type;location;lat;lon;timestamp;P1;durP1;ratioP1;P2;durP2;ratioP2
37527;SDS011;23372;52.050;4.810;2023-06-22T00:00:55;20.10;;;14.48;;
37527;SDS011;23372;52.050;4.810;2023-06-22T00:03:22;21.23;;;14.73;;
37527;SDS011;23372;52.050;4.810;2023-06-22T00:05:49;20.45;;;14.70;;
37527;SDS011;23372;52.050;4.810;2023-06-22T00:08:15;21.67;;;15.15;;
37527;SDS011;23372;52.050;4.810;2023-06-22T00:10:42;21.38;;;15.35;;
37527;SDS011;23372;52.050;4.810;2023-06-22T00:13:08;19.77;;;13.95;;
37527;SDS011;23372;52.050;4.810;2023-06-22T00:15:35;23.52;;;15.55;;
37527;SDS011;23372;52.050;4.810;2023-06-22T00:18:03;24.35;;;15.68;;
37527;SDS011;23372;52.050;4.810;2023-06-22T00:20:30;23.15;;;15.25;;
37527;SDS011;23372;52.050;4.810;2023-06-22T00:22:56;21.35;;;14.98;;
37527;SDS011;23372;52.050;4.810;2023-06-22T00:25:23;20.98;;;15.07;;
37527;SDS011;23372;52.050;4.810;2023-06-22T00:27:49;20.35;;;15.95;;
37527;SDS011;23372;52.050;4.810;2023-06-22T00:30:18;22.98;;;15.23;;
37527;SDS011;23372;52.050;4.810;2023-06-22T00:32:44;21.35;;;15.40;;
37527;SDS011;23372;52.050;4.810;2023-06-22T00:35:13;20.85;;;14.77;;
37527;SDS011;23372;52.050;4.810;2023-06-22T00:37:39;21.85;;;16.17;;
37527;SDS011;23372;52.050;4.810;2023-06-22T00:40:08;20.92;;;16.67;;
37527;SDS011;23372;52.050;4.810;2023-06-22T00:42:36;23.80;;;16.50;;
37527;SDS011;23372;52.050;4.810;2023-06-22T00:45:03;20.85;;;16.70;;
37527;SDS011;23372;52.050;4.810;2023-06-22T00:47:29;18.92;;;15.05;;
37527;SDS011;23372;52.050;4.810;2023-06-22T00:49:54;21.95;;;16.33;;
37527;SDS011;23372;52.050;4.810;2023-06-22T00:52:21;20.33;;;14.80;;
37527;SDS011;23372;52.050;4.810;2023-06-22T00:54:52;21.65;;;15.02;;
37527;SDS011;23372;52.050;4.810;2023-06-22T00:57:18;24.02;;;16.45;;
37527;SDS011;23372;52.050;4.810;2023-06-22T00:59:45;19.88;;;15.10;;
37527;SDS011;23372;52.050;4.810;2023-06-22T01:02:12;20.60;;;15.48;;
37527;SDS011;23372;52.050;4.810;2023-06-22T01:04:38;24.42;;;15.48;;
37527;SDS011;23372;52.050;4.810;2023-06-22T01:10:07;18.05;;;14.18;;
37527;SDS011;23372;52.050;4.810;2023-06-22T01:12:53;22.50;;;14.82;;
37527;SDS011;23372;52.050;4.810;2023-06-22T01:15:33;20.23;;;15.38;;
37527;SDS011;23372;52.050;4.810;2023-06-22T01:18:06;22.00;;;17.05;;
37527;SDS011;23372;52.050;4.810;2023-06-22T01:20:34;22.77;;;16.30;;
37527;SDS011;23372;52.050;4.810;2023-06-22T01:28:50;23.77;;;17.42;;
37527;SDS011;23372;52.050;4.810;2023-06-22T01:31:19;26.95;;;18.33;;
37527;SDS011;23372;52.050;4.810;2023-06-22T01:33:49;26.58;;;18.02;;
37527;SDS011;23372;52.050;4.810;2023-06-22T01:36:22;23.38;;;17.58;;
37527;SDS011;23372;52.050;4.810;2023-06-22T01:38:49;25.92;;;18.40;;
37527;SDS011;23372;52.050;4.810;2023-06-22T01:41:16;27.83;;;19.30;;
37527;SDS011;23372;52.050;4.810;2023-06-22T01:43:42;26.13;;;19.85;;
37527;SDS011;23372;52.050;4.810;2023-06-22T01:46:10;27.20;;;19.85;;
37527;SDS011;23372;52.050;4.810;2023-06-22T01:48:37;26.35;;;19.17;;
37527;SDS011;23372;52.050;4.810;2023-06-22T01:51:04;28.33;;;20.58;;
37527;SDS011;23372;52.050;4.810;2023-06-22T01:53:30;30.55;;;21.15;;
37527;SDS011;23372;52.050;4.810;2023-06-22T01:55:56;30.17;;;20.52;;
37527;SDS011;23372;52.050;4.810;2023-06-22T01:58:23;27.35;;;20.25;;
37527;SDS011;23372;52.050;4.810;2023-06-22T02:00:58;27.48;;;18.50;;
37527;SDS011;23372;52.050;4.810;2023-06-22T02:03:37;24.25;;;18.42;;
37527;SDS011;23372;52.050;4.810;2023-06-22T02:06:12;25.40;;;19.30;;
37527;SDS011;23372;52.050;4.810;2023-06-22T02:08:48;25.42;;;18.85;;
37527;SDS011;23372;52.050;4.810;2023-06-22T02:11:17;28.38;;;20.83;;
37527;SDS011;23372;52.050;4.810;2023-06-22T02:13:44;31.15;;;21.83;;
37527;SDS011;23372;52.050;4.810;2023-06-22T02:16:11;31.05;;;21.30;;
37527;SDS011;23372;52.050;4.810;2023-06-22T02:18:38;28.55;;;21.08;;
37527;SDS011;23372;52.050;4.810;2023-06-22T02:21:05;27.95;;;20.10;;
37527;SDS011;23372;52.050;4.810;2023-06-22T02:23:31;29.35;;;20.20;;
37527;SDS011;23372;52.050;4.810;2023-06-22T02:25:59;25.98;;;18.88;;
37527;SDS011;23372;52.050;4.810;2023-06-22T02:28:26;22.65;;;17.70;;
37527;SDS011;23372;52.050;4.810;2023-06-22T02:30:51;27.85;;;19.95;;
37527;SDS011;23372;52.050;4.810;2023-06-22T02:33:17;30.95;;;20.23;;
37527;SDS011;23372;52.050;4.810;2023-06-22T02:35:42;30.55;;;20.23;;
37527;SDS011;23372;52.050;4.810;2023-06-22T02:38:10;27.83;;;19.52;;
37527;SDS011;23372;52.050;4.810;2023-06-22T02:40:36;28.33;;;20.73;;
37527;SDS011;23372;52.050;4.810;2023-06-22T02:43:01;31.42;;;19.65;;
37527;SDS011;23372;52.050;4.810;2023-06-22T02:45:28;26.98;;;18.73;;
37527;SDS011;23372;52.050;4.810;2023-06-22T02:47:53;24.33;;;17.80;;
37527;SDS011;23372;52.050;4.810;2023-06-22T02:50:20;27.25;;;18.85;;
37527;SDS011;23372;52.050;4.810;2023-06-22T02:52:46;24.80;;;17.92;;
37527;SDS011;23372;52.050;4.810;2023-06-22T02:55:11;23.10;;;18.08;;
37527;SDS011;23372;52.050;4.810;2023-06-22T02:57:37;24.48;;;19.88;;
37527;SDS011;23372;52.050;4.810;2023-06-22T03:00:03;24.42;;;18.92;;
37527;SDS011;23372;52.050;4.810;2023-06-22T03:02:41;27.73;;;18.38;;
37527;SDS011;23372;52.050;4.810;2023-06-22T03:05:07;24.48;;;18.20;;
37527;SDS011;23372;52.050;4.810;2023-06-22T03:07:41;27.25;;;18.48;;
37527;SDS011;23372;52.050;4.810;2023-06-22T03:10:08;30.45;;;19.67;;
37527;SDS011;23372;52.050;4.810;2023-06-22T03:12:35;27.33;;;18.83;;
37527;SDS011;23372;52.050;4.810;2023-06-22T03:15:01;21.65;;;16.58;;
37527;SDS011;23372;52.050;4.810;2023-06-22T03:17:26;24.85;;;18.77;;
37527;SDS011;23372;52.050;4.810;2023-06-22T03:19:52;23.63;;;18.15;;
37527;SDS011;23372;52.050;4.810;2023-06-22T03:22:17;23.45;;;17.05;;
37527;SDS011;23372;52.050;4.810;2023-06-22T03:24:43;25.48;;;17.55;;
37527;SDS011;23372;52.050;4.810;2023-06-22T03:27:09;24.63;;;17.23;;
37527;SDS011;23372;52.050;4.810;2023-06-22T03:29:34;26.20;;;18.80;;
37527;SDS011;23372;52.050;4.810;2023-06-22T03:32:00;26.05;;;18.55;;
37527;SDS011;23372;52.050;4.810;2023-06-22T03:34:25;26.42;;;19.20;;
37527;SDS011;23372;52.050;4.810;2023-06-22T03:36:51;30.70;;;18.88;;
37527;SDS011;23372;52.050;4.810;2023-06-22T03:39:17;23.15;;;18.33;;
37527;SDS011;23372;52.050;4.810;2023-06-22T03:41:43;21.88;;;16.02;;
37527;SDS011;23372;52.050;4.810;2023-06-22T03:44:08;19.70;;;14.88;;
37527;SDS011;23372;52.050;4.810;2023-06-22T03:46:37;22.40;;;17.33;;
37527;SDS011;23372;52.050;4.810;2023-06-22T03:49:03;27.27;;;20.23;;
37527;SDS011;23372;52.050;4.810;2023-06-22T03:51:30;31.10;;;22.02;;
37527;SDS011;23372;52.050;4.810;2023-06-22T03:53:55;30.45;;;21.52;;
37527;SDS011;23372;52.050;4.810;2023-06-22T03:56:21;29.17;;;20.60;;
37527;SDS011;23372;52.050;4.810;2023-06-22T03:58:47;31.55;;;20.73;;
37527;SDS011;23372;52.050;4.810;2023-06-22T04:01:12;29.25;;;21.33;;
37527;SDS011;23372;52.050;4.810;2023-06-22T04:03:38;27.45;;;20.58;;
37527;SDS011;23372;52.050;4.810;2023-06-22T04:06:04;30.38;;;21.15;;
37527;SDS011;23372;52.050;4.810;2023-06-22T04:08:30;32.15;;;22.70;;
37527;SDS011;23372;52.050;4.810;2023-06-22T04:10:55;30.70;;;22.33;;
37527;SDS011;23372;52.050;4.810;2023-06-22T04:13:21;37.65;;;23.27;;
37527;SDS011;23372;52.050;4.810;2023-06-22T04:15:47;32.90;;;22.20;;
37527;SDS011;23372;52.050;4.810;2023-06-22T04:18:12;34.40;;;21.98;;
37527;SDS011;23372;52.050;4.810;2023-06-22T04:20:38;31.50;;;21.40;;
37527;SDS011;23372;52.050;4.810;2023-06-22T04:23:04;29.52;;;21.17;;
37527;SDS011;23372;52.050;4.810;2023-06-22T04:25:30;29.38;;;21.38;;
37527;SDS011;23372;52.050;4.810;2023-06-22T04:27:56;27.73;;;20.85;;
37527;SDS011;23372;52.050;4.810;2023-06-22T04:30:21;29.70;;;20.50;;
37527;SDS011;23372;52.050;4.810;2023-06-22T04:32:47;31.27;;;20.85;;
37527;SDS011;23372;52.050;4.810;2023-06-22T04:35:31;27.35;;;20.65;;
37527;SDS011;23372;52.050;4.810;2023-06-22T04:37:57;27.52;;;19.65;;
37527;SDS011;23372;52.050;4.810;2023-06-22T04:40:23;26.05;;;19.05;;
37527;SDS011;23372;52.050;4.810;2023-06-22T04:42:49;29.75;;;19.77;;
37527;SDS011;23372;52.050;4.810;2023-06-22T04:45:18;30.17;;;19.60;;
37527;SDS011;23372;52.050;4.810;2023-06-22T04:47:45;25.45;;;18.63;;
37527;SDS011;23372;52.050;4.810;2023-06-22T04:50:14;30.02;;;20.40;;
37527;SDS011;23372;52.050;4.810;2023-06-22T04:52:39;22.73;;;17.98;;
37527;SDS011;23372;52.050;4.810;2023-06-22T04:55:05;25.08;;;18.35;;
37527;SDS011;23372;52.050;4.810;2023-06-22T04:57:31;27.85;;;19.10;;
37527;SDS011;23372;52.050;4.810;2023-06-22T05:00:00;27.83;;;19.55;;
37527;SDS011;23372;52.050;4.810;2023-06-22T05:02:27;27.02;;;18.70;;
37527;SDS011;23372;52.050;4.810;2023-06-22T05:04:57;23.58;;;17.83;;
37527;SDS011;23372;52.050;4.810;2023-06-22T05:07:22;26.27;;;18.00;;
37527;SDS011;23372;52.050;4.810;2023-06-22T05:09:50;24.88;;;17.70;;
37527;SDS011;23372;52.050;4.810;2023-06-22T05:12:16;22.10;;;17.92;;
37527;SDS011;23372;52.050;4.810;2023-06-22T05:14:41;23.15;;;17.20;;
37527;SDS011;23372;52.050;4.810;2023-06-22T05:17:07;23.27;;;17.00;;
37527;SDS011;23372;52.050;4.810;2023-06-22T05:19:38;24.17;;;18.05;;
37527;SDS011;23372;52.050;4.810;2023-06-22T05:22:04;24.27;;;18.42;;
37527;SDS011;23372;52.050;4.810;2023-06-22T05:24:31;29.02;;;18.08;;
37527;SDS011;23372;52.050;4.810;2023-06-22T05:26:57;26.92;;;18.45;;
37527;SDS011;23372;52.050;4.810;2023-06-22T05:29:22;24.77;;;18.52;;
37527;SDS011;23372;52.050;4.810;2023-06-22T05:31:48;24.30;;;18.00;;
37527;SDS011;23372;52.050;4.810;2023-06-22T05:34:14;25.95;;;19.02;;
37527;SDS011;23372;52.050;4.810;2023-06-22T05:36:40;24.40;;;18.75;;
37527;SDS011;23372;52.050;4.810;2023-06-22T05:39:12;27.65;;;17.52;;
37527;SDS011;23372;52.050;4.810;2023-06-22T05:41:38;26.17;;;18.05;;
37527;SDS011;23372;52.050;4.810;2023-06-22T05:44:04;27.42;;;17.77;;
37527;SDS011;23372;52.050;4.810;2023-06-22T05:46:30;25.73;;;17.15;;
37527;SDS011;23372;52.050;4.810;2023-06-22T05:48:55;20.70;;;16.17;;
37527;SDS011;23372;52.050;4.810;2023-06-22T05:51:21;25.67;;;16.58;;
37527;SDS011;23372;52.050;4.810;2023-06-22T05:53:46;23.73;;;16.23;;
37527;SDS011;23372;52.050;4.810;2023-06-22T05:56:15;22.33;;;15.60;;
37527;SDS011;23372;52.050;4.810;2023-06-22T05:58:41;22.23;;;15.82;;
37527;SDS011;23372;52.050;4.810;2023-06-22T06:01:06;24.20;;;17.60;;
37527;SDS011;23372;52.050;4.810;2023-06-22T06:03:32;22.75;;;16.25;;
37527;SDS011;23372;52.050;4.810;2023-06-22T06:05:58;20.08;;;16.58;;
37527;SDS011;23372;52.050;4.810;2023-06-22T06:08:23;27.83;;;16.98;;
37527;SDS011;23372;52.050;4.810;2023-06-22T06:10:49;19.00;;;14.65;;
37527;SDS011;23372;52.050;4.810;2023-06-22T06:13:15;20.30;;;15.25;;
37527;SDS011;23372;52.050;4.810;2023-06-22T06:15:40;21.00;;;15.05;;
37527;SDS011;23372;52.050;4.810;2023-06-22T06:18:06;19.92;;;14.63;;
37527;SDS011;23372;52.050;4.810;2023-06-22T06:20:32;20.10;;;15.30;;
37527;SDS011;23372;52.050;4.810;2023-06-22T06:22:57;22.55;;;15.70;;
37527;SDS011;23372;52.050;4.810;2023-06-22T06:25:23;23.17;;;15.88;;
37527;SDS011;23372;52.050;4.810;2023-06-22T06:27:50;20.60;;;15.13;;
37527;SDS011;23372;52.050;4.810;2023-06-22T06:30:17;18.25;;;14.00;;
37527;SDS011;23372;52.050;4.810;2023-06-22T06:32:44;21.08;;;14.52;;
37527;SDS011;23372;52.050;4.810;2023-06-22T06:35:13;16.92;;;14.18;;
37527;SDS011;23372;52.050;4.810;2023-06-22T06:37:41;21.60;;;16.10;;
37527;SDS011;23372;52.050;4.810;2023-06-22T06:40:12;18.95;;;13.85;;
37527;SDS011;23372;52.050;4.810;2023-06-22T06:42:40;19.90;;;14.77;;
37527;SDS011;23372;52.050;4.810;2023-06-22T06:45:10;21.50;;;15.57;;
37527;SDS011;23372;52.050;4.810;2023-06-22T06:47:37;22.63;;;15.02;;
37527;SDS011;23372;52.050;4.810;2023-06-22T06:50:04;21.27;;;14.70;;
37527;SDS011;23372;52.050;4.810;2023-06-22T06:52:30;17.35;;;13.07;;
37527;SDS011;23372;52.050;4.810;2023-06-22T06:54:56;20.05;;;14.20;;
37527;SDS011;23372;52.050;4.810;2023-06-22T06:57:21;18.23;;;14.20;;
37527;SDS011;23372;52.050;4.810;2023-06-22T06:59:47;19.83;;;14.88;;
37527;SDS011;23372;52.050;4.810;2023-06-22T07:02:14;18.23;;;14.98;;
37527;SDS011;23372;52.050;4.810;2023-06-22T07:04:40;19.33;;;14.40;;
37527;SDS011;23372;52.050;4.810;2023-06-22T07:07:06;17.92;;;13.10;;
37527;SDS011;23372;52.050;4.810;2023-06-22T07:09:32;17.95;;;14.25;;
37527;SDS011;23372;52.050;4.810;2023-06-22T07:11:58;17.65;;;13.32;;
37527;SDS011;23372;52.050;4.810;2023-06-22T07:14:23;18.90;;;14.18;;
37527;SDS011;23372;52.050;4.810;2023-06-22T07:16:49;19.50;;;12.90;;
37527;SDS011;23372;52.050;4.810;2023-06-22T07:19:15;16.13;;;12.98;;
37527;SDS011;23372;52.050;4.810;2023-06-22T07:21:40;16.38;;;11.98;;
37527;SDS011;23372;52.050;4.810;2023-06-22T07:24:06;17.42;;;13.38;;
37527;SDS011;23372;52.050;4.810;2023-06-22T07:26:32;16.95;;;13.93;;
37527;SDS011;23372;52.050;4.810;2023-06-22T07:28:58;20.23;;;14.60;;
37527;SDS011;23372;52.050;4.810;2023-06-22T07:31:24;20.60;;;15.75;;
37527;SDS011;23372;52.050;4.810;2023-06-22T07:33:50;16.88;;;13.88;;
37527;SDS011;23372;52.050;4.810;2023-06-22T07:36:16;18.95;;;15.00;;
37527;SDS011;23372;52.050;4.810;2023-06-22T07:38:43;19.77;;;15.45;;
37527;SDS011;23372;52.050;4.810;2023-06-22T07:41:09;17.23;;;14.95;;
37527;SDS011;23372;52.050;4.810;2023-06-22T07:43:34;17.35;;;15.55;;
37527;SDS011;23372;52.050;4.810;2023-06-22T07:46:05;20.05;;;16.15;;
37527;SDS011;23372;52.050;4.810;2023-06-22T07:48:30;20.67;;;15.52;;
37527;SDS011;23372;52.050;4.810;2023-06-22T07:50:56;20.83;;;18.02;;
37527;SDS011;23372;52.050;4.810;2023-06-22T07:53:22;22.95;;;17.95;;
37527;SDS011;23372;52.050;4.810;2023-06-22T07:55:48;22.88;;;19.13;;
37527;SDS011;23372;52.050;4.810;2023-06-22T07:58:14;22.27;;;17.92;;
37527;SDS011;23372;52.050;4.810;2023-06-22T08:00:40;24.38;;;18.20;;
37527;SDS011;23372;52.050;4.810;2023-06-22T08:03:06;20.40;;;17.75;;
37527;SDS011;23372;52.050;4.810;2023-06-22T08:05:32;21.27;;;18.30;;
37527;SDS011;23372;52.050;4.810;2023-06-22T08:07:57;24.00;;;17.90;;
37527;SDS011;23372;52.050;4.810;2023-06-22T08:10:23;22.42;;;17.35;;
37527;SDS011;23372;52.050;4.810;2023-06-22T08:12:49;22.70;;;17.63;;
37527;SDS011;23372;52.050;4.810;2023-06-22T08:15:14;22.73;;;17.85;;
37527;SDS011;23372;52.050;4.810;2023-06-22T08:17:40;19.80;;;16.55;;
37527;SDS011;23372;52.050;4.810;2023-06-22T08:20:06;19.73;;;16.38;;
37527;SDS011;23372;52.050;4.810;2023-06-22T08:22:39;22.27;;;16.92;;
37527;SDS011;23372;52.050;4.810;2023-06-22T08:25:06;18.00;;;14.95;;
37527;SDS011;23372;52.050;4.810;2023-06-22T08:27:32;19.30;;;14.90;;
37527;SDS011;23372;52.050;4.810;2023-06-22T08:29:58;20.13;;;16.25;;
37527;SDS011;23372;52.050;4.810;2023-06-22T08:32:24;21.38;;;16.17;;
37527;SDS011;23372;52.050;4.810;2023-06-22T08:34:52;19.55;;;15.25;;
37527;SDS011;23372;52.050;4.810;2023-06-22T08:37:18;18.23;;;14.40;;
37527;SDS011;23372;52.050;4.810;2023-06-22T08:39:44;19.10;;;12.13;;
37527;SDS011;23372;52.050;4.810;2023-06-22T08:42:10;15.75;;;12.77;;
37527;SDS011;23372;52.050;4.810;2023-06-22T08:44:36;18.35;;;11.90;;
37527;SDS011;23372;52.050;4.810;2023-06-22T08:47:02;18.65;;;13.02;;
37527;SDS011;23372;52.050;4.810;2023-06-22T08:49:28;18.45;;;13.27;;
37527;SDS011;23372;52.050;4.810;2023-06-22T08:51:54;17.58;;;13.65;;
37527;SDS011;23372;52.050;4.810;2023-06-22T08:54:21;18.00;;;13.40;;
37527;SDS011;23372;52.050;4.810;2023-06-22T08:56:47;18.70;;;13.70;;
37527;SDS011;23372;52.050;4.810;2023-06-22T08:59:13;16.65;;;14.23;;
37527;SDS011;23372;52.050;4.810;2023-06-22T09:01:39;19.83;;;15.25;;
37527;SDS011;23372;52.050;4.810;2023-06-22T09:04:04;18.30;;;13.52;;
37527;SDS011;23372;52.050;4.810;2023-06-22T09:06:32;17.85;;;13.00;;
37527;SDS011;23372;52.050;4.810;2023-06-22T09:08:57;16.92;;;14.15;;
37527;SDS011;23372;52.050;4.810;2023-06-22T09:11:26;19.35;;;14.20;;
37527;SDS011;23372;52.050;4.810;2023-06-22T09:13:52;15.23;;;11.90;;
37527;SDS011;23372;52.050;4.810;2023-06-22T09:16:18;14.20;;;11.80;;
37527;SDS011;23372;52.050;4.810;2023-06-22T09:18:48;15.52;;;11.85;;
37527;SDS011;23372;52.050;4.810;2023-06-22T09:21:13;18.33;;;11.98;;
37527;SDS011;23372;52.050;4.810;2023-06-22T09:23:39;15.10;;;11.93;;
37527;SDS011;23372;52.050;4.810;2023-06-22T09:29:26;14.38;;;11.60;;
37527;SDS011;23372;52.050;4.810;2023-06-22T09:31:52;15.82;;;12.20;;
37527;SDS011;23372;52.050;4.810;2023-06-22T09:34:21;15.45;;;12.85;;
37527;SDS011;23372;52.050;4.810;2023-06-22T09:36:46;15.13;;;12.32;;
37527;SDS011;23372;52.050;4.810;2023-06-22T09:39:12;16.63;;;13.25;;
37527;SDS011;23372;52.050;4.810;2023-06-22T09:41:38;15.85;;;11.98;;
37527;SDS011;23372;52.050;4.810;2023-06-22T09:44:04;14.70;;;11.88;;
37527;SDS011;23372;52.050;4.810;2023-06-22T09:46:29;16.65;;;12.02;;
37527;SDS011;23372;52.050;4.810;2023-06-22T09:48:55;14.18;;;11.90;;
37527;SDS011;23372;52.050;4.810;2023-06-22T09:51:21;15.40;;;12.45;;
37527;SDS011;23372;52.050;4.810;2023-06-22T09:53:48;15.63;;;11.45;;
37527;SDS011;23372;52.050;4.810;2023-06-22T09:56:14;11.35;;;9.15;;
37527;SDS011;23372;52.050;4.810;2023-06-22T09:58:41;13.52;;;10.10;;
37527;SDS011;23372;52.050;4.810;2023-06-22T10:01:08;15.93;;;10.07;;
37527;SDS011;23372;52.050;4.810;2023-06-22T10:03:35;15.90;;;9.73;;
37527;SDS011;23372;52.050;4.810;2023-06-22T10:06:01;12.23;;;9.07;;
37527;SDS011;23372;52.050;4.810;2023-06-22T10:08:27;15.05;;;10.52;;
37527;SDS011;23372;52.050;4.810;2023-06-22T10:10:52;12.60;;;9.20;;
37527;SDS011;23372;52.050;4.810;2023-06-22T10:13:18;11.68;;;8.77;;
37527;SDS011;23372;52.050;4.810;2023-06-22T10:15:44;11.77;;;9.13;;
37527;SDS011;23372;52.050;4.810;2023-06-22T10:18:16;12.18;;;9.60;;
37527;SDS011;23372;52.050;4.810;2023-06-22T10:20:42;16.13;;;9.85;;
37527;SDS011;23372;52.050;4.810;2023-06-22T10:23:08;12.82;;;9.60;;
37527;SDS011;23372;52.050;4.810;2023-06-22T10:25:34;14.25;;;9.50;;
37527;SDS011;23372;52.050;4.810;2023-06-22T10:27:59;12.07;;;8.52;;
37527;SDS011;23372;52.050;4.810;2023-06-22T10:30:25;11.80;;;9.60;;
37527;SDS011;23372;52.050;4.810;2023-06-22T10:32:50;13.23;;;9.50;;
37527;SDS011;23372;52.050;4.810;2023-06-22T10:35:16;10.98;;;9.85;;
37527;SDS011;23372;52.050;4.810;2023-06-22T10:37:42;12.38;;;9.60;;
37527;SDS011;23372;52.050;4.810;2023-06-22T10:40:09;16.90;;;11.95;;
37527;SDS011;23372;52.050;4.810;2023-06-22T10:42:36;16.42;;;13.20;;
37527;SDS011;23372;52.050;4.810;2023-06-22T10:45:02;16.75;;;13.35;;
37527;SDS011;23372;52.050;4.810;2023-06-22T10:47:28;18.30;;;13.52;;
37527;SDS011;23372;52.050;4.810;2023-06-22T10:49:53;16.23;;;14.10;;
37527;SDS011;23372;52.050;4.810;2023-06-22T10:52:19;16.38;;;13.75;;
37527;SDS011;23372;52.050;4.810;2023-06-22T10:54:44;21.77;;;15.43;;
37527;SDS011;23372;52.050;4.810;2023-06-22T10:57:10;23.02;;;15.60;;
37527;SDS011;23372;52.050;4.810;2023-06-22T10:59:36;21.58;;;14.82;;
37527;SDS011;23372;52.050;4.810;2023-06-22T11:02:01;19.65;;;15.45;;
37527;SDS011;23372;52.050;4.810;2023-06-22T11:04:27;20.15;;;14.77;;
37527;SDS011;23372;52.050;4.810;2023-06-22T11:06:53;20.05;;;15.73;;
37527;SDS011;23372;52.050;4.810;2023-06-22T11:09:18;22.45;;;12.98;;
37527;SDS011;23372;52.050;4.810;2023-06-22T11:11:50;14.77;;;12.10;;
37527;SDS011;23372;52.050;4.810;2023-06-22T11:14:18;15.88;;;12.07;;
37527;SDS011;23372;52.050;4.810;2023-06-22T11:16:44;17.42;;;11.10;;
37527;SDS011;23372;52.050;4.810;2023-06-22T11:19:11;18.42;;;13.15;;
37527;SDS011;23372;52.050;4.810;2023-06-22T11:21:37;20.83;;;15.02;;
37527;SDS011;23372;52.050;4.810;2023-06-22T11:24:02;24.10;;;19.48;;
37527;SDS011;23372;52.050;4.810;2023-06-22T11:26:28;25.30;;;20.38;;
37527;SDS011;23372;52.050;4.810;2023-06-22T11:28:54;27.73;;;22.63;;
37527;SDS011;23372;52.050;4.810;2023-06-22T11:31:20;28.00;;;22.98;;
37527;SDS011;23372;52.050;4.810;2023-06-22T11:33:46;28.27;;;21.90;;
37527;SDS011;23372;52.050;4.810;2023-06-22T11:36:13;32.13;;;21.90;;
37527;SDS011;23372;52.050;4.810;2023-06-22T11:38:39;28.83;;;21.85;;
37527;SDS011;23372;52.050;4.810;2023-06-22T11:41:08;27.63;;;23.40;;
37527;SDS011;23372;52.050;4.810;2023-06-22T11:43:34;32.05;;;24.45;;
37527;SDS011;23372;52.050;4.810;2023-06-22T11:46:01;31.02;;;23.33;;
37527;SDS011;23372;52.050;4.810;2023-06-22T11:48:28;32.75;;;24.80;;
37527;SDS011;23372;52.050;4.810;2023-06-22T11:50:54;30.48;;;23.88;;
37527;SDS011;23372;52.050;4.810;2023-06-22T11:53:20;29.77;;;22.88;;
37527;SDS011;23372;52.050;4.810;2023-06-22T11:55:47;31.20;;;24.05;;
37527;SDS011;23372;52.050;4.810;2023-06-22T11:58:14;29.02;;;21.85;;
37527;SDS011;23372;52.050;4.810;2023-06-22T12:00:39;27.40;;;22.27;;
37527;SDS011;23372;52.050;4.810;2023-06-22T12:03:06;30.08;;;24.25;;
37527;SDS011;23372;52.050;4.810;2023-06-22T12:05:32;28.30;;;23.00;;
37527;SDS011;23372;52.050;4.810;2023-06-22T12:07:58;29.63;;;23.25;;
37527;SDS011;23372;52.050;4.810;2023-06-22T12:10:25;31.70;;;25.08;;
37527;SDS011;23372;52.050;4.810;2023-06-22T12:12:51;31.48;;;23.83;;
37527;SDS011;23372;52.050;4.810;2023-06-22T12:15:17;27.38;;;22.67;;
37527;SDS011;23372;52.050;4.810;2023-06-22T12:17:42;31.15;;;22.58;;
37527;SDS011;23372;52.050;4.810;2023-06-22T12:20:08;29.08;;;23.73;;
37527;SDS011;23372;52.050;4.810;2023-06-22T12:22:34;28.48;;;23.95;;
37527;SDS011;23372;52.050;4.810;2023-06-22T12:25:00;29.25;;;22.95;;
37527;SDS011;23372;52.050;4.810;2023-06-22T12:27:26;29.92;;;24.23;;
37527;SDS011;23372;52.050;4.810;2023-06-22T12:29:52;32.47;;;24.23;;
37527;SDS011;23372;52.050;4.810;2023-06-22T12:32:17;29.20;;;25.30;;
37527;SDS011;23372;52.050;4.810;2023-06-22T12:34:43;33.50;;;24.13;;
37527;SDS011;23372;52.050;4.810;2023-06-22T12:37:10;30.52;;;24.77;;
37527;SDS011;23372;52.050;4.810;2023-06-22T12:39:35;27.48;;;22.90;;
37527;SDS011;23372;52.050;4.810;2023-06-22T12:42:01;30.85;;;23.63;;
37527;SDS011;23372;52.050;4.810;2023-06-22T12:44:27;27.23;;;23.35;;
37527;SDS011;23372;52.050;4.810;2023-06-22T12:46:52;30.70;;;24.08;;
37527;SDS011;23372;52.050;4.810;2023-06-22T12:49:18;29.88;;;24.15;;
37527;SDS011;23372;52.050;4.810;2023-06-22T12:51:44;30.02;;;24.20;;
37527;SDS011;23372;52.050;4.810;2023-06-22T12:54:10;29.58;;;24.20;;
37527;SDS011;23372;52.050;4.810;2023-06-22T12:56:36;29.08;;;25.05;;
37527;SDS011;23372;52.050;4.810;2023-06-22T12:59:05;33.05;;;25.63;;
37527;SDS011;23372;52.050;4.810;2023-06-22T13:01:31;28.13;;;24.98;;
37527;SDS011;23372;52.050;4.810;2023-06-22T13:03:57;32.80;;;26.55;;
37527;SDS011;23372;52.050;4.810;2023-06-22T13:06:23;35.28;;;26.85;;
37527;SDS011;23372;52.050;4.810;2023-06-22T13:08:49;31.55;;;25.90;;
37527;SDS011;23372;52.050;4.810;2023-06-22T13:11:14;32.90;;;26.92;;
37527;SDS011;23372;52.050;4.810;2023-06-22T13:13:40;33.63;;;27.00;;
37527;SDS011;23372;52.050;4.810;2023-06-22T13:16:06;33.28;;;27.35;;
37527;SDS011;23372;52.050;4.810;2023-06-22T13:18:32;35.20;;;26.88;;
37527;SDS011;23372;52.050;4.810;2023-06-22T13:21:00;34.88;;;27.05;;
37527;SDS011;23372;52.050;4.810;2023-06-22T13:23:29;38.85;;;27.92;;
37527;SDS011;23372;52.050;4.810;2023-06-22T13:25:55;32.33;;;27.02;;
37527;SDS011;23372;52.050;4.810;2023-06-22T13:28:21;34.25;;;27.95;;
37527;SDS011;23372;52.050;4.810;2023-06-22T13:30:47;36.38;;;29.08;;
37527;SDS011;23372;52.050;4.810;2023-06-22T13:33:13;33.30;;;28.25;;
37527;SDS011;23372;52.050;4.810;2023-06-22T13:35:39;31.17;;;26.90;;
37527;SDS011;23372;52.050;4.810;2023-06-22T13:38:07;31.80;;;26.92;;
37527;SDS011;23372;52.050;4.810;2023-06-22T13:40:34;37.97;;;28.60;;
37527;SDS011;23372;52.050;4.810;2023-06-22T13:43:00;33.03;;;26.15;;
37527;SDS011;23372;52.050;4.810;2023-06-22T13:45:26;34.50;;;24.45;;
37527;SDS011;23372;52.050;4.810;2023-06-22T13:47:52;23.05;;;19.75;;
37527;SDS011;23372;52.050;4.810;2023-06-22T13:50:17;25.15;;;18.80;;
37527;SDS011;23372;52.050;4.810;2023-06-22T13:52:43;23.30;;;19.02;;
37527;SDS011;23372;52.050;4.810;2023-06-22T13:55:09;21.10;;;16.05;;
37527;SDS011;23372;52.050;4.810;2023-06-22T13:57:35;21.65;;;16.42;;
37527;SDS011;23372;52.050;4.810;2023-06-22T14:00:02;20.13;;;15.07;;
37527;SDS011;23372;52.050;4.810;2023-06-22T14:02:32;18.23;;;15.38;;
37527;SDS011;23372;52.050;4.810;2023-06-22T14:04:58;17.75;;;15.85;;
37527;SDS011;23372;52.050;4.810;2023-06-22T14:07:24;20.52;;;15.57;;
37527;SDS011;23372;52.050;4.810;2023-06-22T14:09:50;20.88;;;15.05;;
37527;SDS011;23372;52.050;4.810;2023-06-22T14:12:15;19.63;;;15.88;;
37527;SDS011;23372;52.050;4.810;2023-06-22T14:14:42;16.73;;;14.90;;
37527;SDS011;23372;52.050;4.810;2023-06-22T14:17:09;19.63;;;15.75;;
37527;SDS011;23372;52.050;4.810;2023-06-22T14:19:34;20.42;;;15.60;;
37527;SDS011;23372;52.050;4.810;2023-06-22T14:22:00;16.75;;;13.43;;
37527;SDS011;23372;52.050;4.810;2023-06-22T14:24:26;15.63;;;13.70;;
37527;SDS011;23372;52.050;4.810;2023-06-22T14:26:51;18.98;;;12.30;;
37527;SDS011;23372;52.050;4.810;2023-06-22T14:29:17;17.10;;;9.95;;